sensor_id;sensor_type;location;lat;lon;timestamp;temperature;humidity
60353;DHT22;46196;52.970;6.954;2022-12-07T00:01:24;3.20;99.90
60353;DHT22;46196;52.970;6.954;2022-12-07T00:03:53;3.20;99.90
60353;DHT22;46196;52.970;6.954;2022-12-07T00:06:19;3.20;99.90
60353;DHT22;46196;52.970;6.954;2022-12-07T00:08:46;3.20;99.90
60353;DHT22;46196;52.970;6.954;2022-12-07T00:11:18;3.10;99.90
60353;DHT22;46196;52.970;6.954;2022-12-07T00:13:45;3.20;99.90
60353;DHT22;46196;52.970;6.954;2022-12-07T00:16:17;3.10;99.90
60353;DHT22;46196;52.970;6.954;2022-12-07T00:18:44;3.10;99.90
60353;DHT22;46196;52.970;6.954;2022-12-07T00:21:12;3.40;99.90
60353;DHT22;46196;52.970;6.954;2022-12-07T00:23:39;3.00;99.90
60353;DHT22;46196;52.970;6.954;2022-12-07T00:26:10;3.90;99.90
60353;DHT22;46196;52.970;6.954;2022-12-07T00:28:36;3.10;99.90
60353;DHT22;46196;52.970;6.954;2022-12-07T00:31:07;3.00;99.90
60353;DHT22;46196;52.970;6.954;2022-12-07T00:33:33;3.00;99.90
60353;DHT22;46196;52.970;6.954;2022-12-07T00:36:00;3.00;99.90
60353;DHT22;46196;52.970;6.954;2022-12-07T00:38:31;3.70;99.90
60353;DHT22;46196;52.970;6.954;2022-12-07T00:40:59;3.00;99.90
60353;DHT22;46196;52.970;6.954;2022-12-07T00:43:26;3.90;99.90
60353;DHT22;46196;52.970;6.954;2022-12-07T00:45:52;3.00;99.90
60353;DHT22;46196;52.970;6.954;2022-12-07T00:48:18;3.20;99.90
60353;DHT22;46196;52.970;6.954;2022-12-07T00:50:44;3.00;99.90
60353;DHT22;46196;52.970;6.954;2022-12-07T00:53:09;3.10;99.90
60353;DHT22;46196;52.970;6.954;2022-12-07T00:55:35;3.10;99.90
60353;DHT22;46196;52.970;6.954;2022-12-07T00:58:02;3.10;99.90
60353;DHT22;46196;52.970;6.954;2022-12-07T01:00:28;3.20;99.90
60353;DHT22;46196;52.970;6.954;2022-12-07T01:02:54;3.20;99.90
60353;DHT22;46196;52.970;6.954;2022-12-07T01:05:20;3.50;99.90
60353;DHT22;46196;52.970;6.954;2022-12-07T01:07:46;3.20;99.90
60353;DHT22;46196;52.970;6.954;2022-12-07T01:10:13;3.40;99.90
60353;DHT22;46196;52.970;6.954;2022-12-07T01:12:39;3.20;99.90
60353;DHT22;46196;52.970;6.954;2022-12-07T01:15:06;3.20;99.90
60353;DHT22;46196;52.970;6.954;2022-12-07T01:17:32;3.10;99.90
60353;DHT22;46196;52.970;6.954;2022-12-07T01:19:57;3.10;99.90
60353;DHT22;46196;52.970;6.954;2022-12-07T01:22:23;3.10;99.90
60353;DHT22;46196;52.970;6.954;2022-12-07T01:24:49;4.10;99.90
60353;DHT22;46196;52.970;6.954;2022-12-07T01:27:15;3.00;99.90
60353;DHT22;46196;52.970;6.954;2022-12-07T01:29:41;4.10;99.90
60353;DHT22;46196;52.970;6.954;2022-12-07T01:32:07;3.00;99.90
60353;DHT22;46196;52.970;6.954;2022-12-07T01:34:32;2.90;99.90
60353;DHT22;46196;52.970;6.954;2022-12-07T01:36:58;3.00;99.90
60353;DHT22;46196;52.970;6.954;2022-12-07T01:39:24;2.90;99.90
60353;DHT22;46196;52.970;6.954;2022-12-07T01:41:53;2.90;99.90
60353;DHT22;46196;52.970;6.954;2022-12-07T01:44:25;3.00;99.90
60353;DHT22;46196;52.970;6.954;2022-12-07T01:46:56;3.00;99.90
60353;DHT22;46196;52.970;6.954;2022-12-07T01:49:28;3.00;99.90
60353;DHT22;46196;52.970;6.954;2022-12-07T01:52:01;3.10;99.90
60353;DHT22;46196;52.970;6.954;2022-12-07T01:54:29;3.00;99.90
60353;DHT22;46196;52.970;6.954;2022-12-07T01:56:56;3.00;99.90
60353;DHT22;46196;52.970;6.954;2022-12-07T01:59:24;2.90;99.90
60353;DHT22;46196;52.970;6.954;2022-12-07T02:01:52;3.00;99.90
60353;DHT22;46196;52.970;6.954;2022-12-07T02:04:18;2.90;99.90
60353;DHT22;46196;52.970;6.954;2022-12-07T02:06:45;2.90;99.90
60353;DHT22;46196;52.970;6.954;2022-12-07T02:09:11;3.00;99.90
60353;DHT22;46196;52.970;6.954;2022-12-07T02:11:38;2.90;99.90
60353;DHT22;46196;52.970;6.954;2022-12-07T02:14:04;2.90;99.90
60353;DHT22;46196;52.970;6.954;2022-12-07T02:27:46;2.90;99.90
60353;DHT22;46196;52.970;6.954;2022-12-07T02:30:15;3.00;99.90
60353;DHT22;46196;52.970;6.954;2022-12-07T02:32:48;3.10;99.90
60353;DHT22;46196;52.970;6.954;2022-12-07T02:35:24;3.30;99.90
60353;DHT22;46196;52.970;6.954;2022-12-07T02:37:58;3.40;99.90
60353;DHT22;46196;52.970;6.954;2022-12-07T02:40:44;3.50;99.90
60353;DHT22;46196;52.970;6.954;2022-12-07T02:43:25;3.50;99.90
60353;DHT22;46196;52.970;6.954;2022-12-07T02:45:54;4.80;99.90
60353;DHT22;46196;52.970;6.954;2022-12-07T02:48:21;3.60;99.90
60353;DHT22;46196;52.970;6.954;2022-12-07T02:50:50;3.60;99.90
60353;DHT22;46196;52.970;6.954;2022-12-07T02:53:40;3.50;99.90
60353;DHT22;46196;52.970;6.954;2022-12-07T03:01:44;3.50;99.90
60353;DHT22;46196;52.970;6.954;2022-12-07T03:04:52;3.50;99.90
60353;DHT22;46196;52.970;6.954;2022-12-07T03:11:07;3.30;99.90
60353;DHT22;46196;52.970;6.954;2022-12-07T03:16:38;3.20;99.90
60353;DHT22;46196;52.970;6.954;2022-12-07T03:19:15;3.20;99.90
60353;DHT22;46196;52.970;6.954;2022-12-07T03:21:47;3.10;99.90
60353;DHT22;46196;52.970;6.954;2022-12-07T03:24:19;3.00;99.90
60353;DHT22;46196;52.970;6.954;2022-12-07T03:26:49;3.00;99.90
60353;DHT22;46196;52.970;6.954;2022-12-07T03:29:40;2.90;99.90
60353;DHT22;46196;52.970;6.954;2022-12-07T03:35:25;3.00;99.90
60353;DHT22;46196;52.970;6.954;2022-12-07T03:40:39;3.10;99.90
60353;DHT22;46196;52.970;6.954;2022-12-07T03:43:06;3.30;99.90
60353;DHT22;46196;52.970;6.954;2022-12-07T03:48:38;3.40;99.90
60353;DHT22;46196;52.970;6.954;2022-12-07T03:51:26;3.50;99.90
60353;DHT22;46196;52.970;6.954;2022-12-07T03:54:13;3.60;99.90
60353;DHT22;46196;52.970;6.954;2022-12-07T03:56:41;3.60;99.90
60353;DHT22;46196;52.970;6.954;2022-12-07T03:59:08;3.70;99.90
60353;DHT22;46196;52.970;6.954;2022-12-07T04:01:34;3.60;99.90
60353;DHT22;46196;52.970;6.954;2022-12-07T04:03:59;4.60;99.90
60353;DHT22;46196;52.970;6.954;2022-12-07T04:06:25;3.80;99.90
60353;DHT22;46196;52.970;6.954;2022-12-07T04:08:51;3.80;99.90
60353;DHT22;46196;52.970;6.954;2022-12-07T04:11:17;3.80;99.90
60353;DHT22;46196;52.970;6.954;2022-12-07T04:13:42;3.90;99.90
60353;DHT22;46196;52.970;6.954;2022-12-07T04:16:27;3.90;99.90
60353;DHT22;46196;52.970;6.954;2022-12-07T04:18:52;3.90;99.90
60353;DHT22;46196;52.970;6.954;2022-12-07T04:21:18;3.90;99.90
60353;DHT22;46196;52.970;6.954;2022-12-07T04:23:44;3.90;99.90
60353;DHT22;46196;52.970;6.954;2022-12-07T04:26:10;3.90;99.90
60353;DHT22;46196;52.970;6.954;2022-12-07T04:28:35;3.80;99.90
60353;DHT22;46196;52.970;6.954;2022-12-07T04:31:01;3.80;99.90
60353;DHT22;46196;52.970;6.954;2022-12-07T04:33:27;3.80;99.90
60353;DHT22;46196;52.970;6.954;2022-12-07T04:35:53;3.80;99.90
60353;DHT22;46196;52.970;6.954;2022-12-07T04:38:18;3.80;99.90
60353;DHT22;46196;52.970;6.954;2022-12-07T04:40:44;3.80;99.90
60353;DHT22;46196;52.970;6.954;2022-12-07T04:43:10;3.60;99.90
60353;DHT22;46196;52.970;6.954;2022-12-07T04:45:35;3.60;99.90
60353;DHT22;46196;52.970;6.954;2022-12-07T04:48:01;3.50;99.90
60353;DHT22;46196;52.970;6.954;2022-12-07T04:50:27;3.40;99.90
60353;DHT22;46196;52.970;6.954;2022-12-07T04:52:53;3.30;99.90
60353;DHT22;46196;52.970;6.954;2022-12-07T04:55:19;3.60;99.90
60353;DHT22;46196;52.970;6.954;2022-12-07T04:57:44;3.30;99.90
60353;DHT22;46196;52.970;6.954;2022-12-07T05:00:12;3.20;99.90
60353;DHT22;46196;52.970;6.954;2022-12-07T05:02:38;3.20;99.90
60353;DHT22;46196;52.970;6.954;2022-12-07T05:05:04;3.10;99.90
60353;DHT22;46196;52.970;6.954;2022-12-07T05:07:29;3.10;99.90
60353;DHT22;46196;52.970;6.954;2022-12-07T05:09:55;3.00;99.90
60353;DHT22;46196;52.970;6.954;2022-12-07T05:12:21;2.90;99.90
60353;DHT22;46196;52.970;6.954;2022-12-07T05:14:46;2.90;99.90
60353;DHT22;46196;52.970;6.954;2022-12-07T05:17:12;2.90;99.90
60353;DHT22;46196;52.970;6.954;2022-12-07T05:19:38;2.90;99.90
60353;DHT22;46196;52.970;6.954;2022-12-07T05:22:03;3.00;99.90
60353;DHT22;46196;52.970;6.954;2022-12-07T05:24:29;2.90;99.90
60353;DHT22;46196;52.970;6.954;2022-12-07T05:26:55;3.10;99.90
60353;DHT22;46196;52.970;6.954;2022-12-07T05:29:20;3.00;99.90
60353;DHT22;46196;52.970;6.954;2022-12-07T05:31:46;3.10;99.90
60353;DHT22;46196;52.970;6.954;2022-12-07T05:34:12;3.10;99.90
60353;DHT22;46196;52.970;6.954;2022-12-07T05:36:38;3.20;99.90
60353;DHT22;46196;52.970;6.954;2022-12-07T05:39:04;3.20;99.90
60353;DHT22;46196;52.970;6.954;2022-12-07T05:41:30;3.20;99.90
60353;DHT22;46196;52.970;6.954;2022-12-07T05:44:18;3.30;99.90
60353;DHT22;46196;52.970;6.954;2022-12-07T05:46:46;4.20;99.90
60353;DHT22;46196;52.970;6.954;2022-12-07T05:49:11;3.20;99.90
60353;DHT22;46196;52.970;6.954;2022-12-07T05:51:37;3.20;99.90
60353;DHT22;46196;52.970;6.954;2022-12-07T05:54:03;3.20;99.90
60353;DHT22;46196;52.970;6.954;2022-12-07T05:56:29;3.10;99.90
60353;DHT22;46196;52.970;6.954;2022-12-07T05:58:55;3.10;99.90
60353;DHT22;46196;52.970;6.954;2022-12-07T06:01:40;3.90;99.90
60353;DHT22;46196;52.970;6.954;2022-12-07T06:04:06;2.90;99.90
60353;DHT22;46196;52.970;6.954;2022-12-07T06:06:32;2.80;99.90
60353;DHT22;46196;52.970;6.954;2022-12-07T06:08:57;2.70;99.90
60353;DHT22;46196;52.970;6.954;2022-12-07T06:11:23;2.60;99.90
60353;DHT22;46196;52.970;6.954;2022-12-07T06:14:08;2.60;99.90
60353;DHT22;46196;52.970;6.954;2022-12-07T06:16:33;2.60;99.90
60353;DHT22;46196;52.970;6.954;2022-12-07T06:18:59;2.50;99.90
60353;DHT22;46196;52.970;6.954;2022-12-07T06:21:25;2.40;99.90
60353;DHT22;46196;52.970;6.954;2022-12-07T06:23:54;2.40;99.90
60353;DHT22;46196;52.970;6.954;2022-12-07T06:26:21;2.40;99.90
60353;DHT22;46196;52.970;6.954;2022-12-07T06:28:47;2.40;99.90
60353;DHT22;46196;52.970;6.954;2022-12-07T06:31:13;2.30;99.90
60353;DHT22;46196;52.970;6.954;2022-12-07T06:33:38;2.20;99.90
60353;DHT22;46196;52.970;6.954;2022-12-07T06:36:04;2.20;99.90
60353;DHT22;46196;52.970;6.954;2022-12-07T06:38:30;2.10;99.90
60353;DHT22;46196;52.970;6.954;2022-12-07T06:40:56;2.10;99.90
60353;DHT22;46196;52.970;6.954;2022-12-07T06:43:21;2.00;99.90
60353;DHT22;46196;52.970;6.954;2022-12-07T06:45:47;2.00;99.90
60353;DHT22;46196;52.970;6.954;2022-12-07T06:48:13;2.00;99.90
60353;DHT22;46196;52.970;6.954;2022-12-07T06:50:39;2.00;99.90
60353;DHT22;46196;52.970;6.954;2022-12-07T06:53:05;2.10;99.90
60353;DHT22;46196;52.970;6.954;2022-12-07T06:55:31;2.00;99.90
60353;DHT22;46196;52.970;6.954;2022-12-07T06:57:56;2.00;99.90
60353;DHT22;46196;52.970;6.954;2022-12-07T07:00:23;1.90;99.90
60353;DHT22;46196;52.970;6.954;2022-12-07T07:02:49;1.90;99.90
60353;DHT22;46196;52.970;6.954;2022-12-07T07:05:15;1.90;99.90
60353;DHT22;46196;52.970;6.954;2022-12-07T07:07:41;2.00;99.90
60353;DHT22;46196;52.970;6.954;2022-12-07T07:10:07;2.50;99.90
60353;DHT22;46196;52.970;6.954;2022-12-07T07:12:33;1.90;99.90
60353;DHT22;46196;52.970;6.954;2022-12-07T07:14:59;2.00;99.90
60353;DHT22;46196;52.970;6.954;2022-12-07T07:17:24;2.10;99.90
60353;DHT22;46196;52.970;6.954;2022-12-07T07:19:50;2.20;99.90
60353;DHT22;46196;52.970;6.954;2022-12-07T07:22:16;2.20;99.90
60353;DHT22;46196;52.970;6.954;2022-12-07T07:24:42;2.20;99.90
60353;DHT22;46196;52.970;6.954;2022-12-07T07:27:07;2.20;99.90
60353;DHT22;46196;52.970;6.954;2022-12-07T07:29:33;2.20;99.90
60353;DHT22;46196;52.970;6.954;2022-12-07T07:31:59;2.20;99.90
60353;DHT22;46196;52.970;6.954;2022-12-07T07:34:25;2.10;99.90
60353;DHT22;46196;52.970;6.954;2022-12-07T07:36:51;2.10;99.90
60353;DHT22;46196;52.970;6.954;2022-12-07T07:39:17;2.10;99.90
60353;DHT22;46196;52.970;6.954;2022-12-07T07:41:42;2.20;99.90
60353;DHT22;46196;52.970;6.954;2022-12-07T07:44:09;2.10;99.90
60353;DHT22;46196;52.970;6.954;2022-12-07T07:46:35;2.10;99.90
60353;DHT22;46196;52.970;6.954;2022-12-07T07:49:01;2.10;99.90
60353;DHT22;46196;52.970;6.954;2022-12-07T07:51:27;2.10;99.90
60353;DHT22;46196;52.970;6.954;2022-12-07T07:53:53;2.10;99.90
60353;DHT22;46196;52.970;6.954;2022-12-07T07:56:19;2.30;99.90
60353;DHT22;46196;52.970;6.954;2022-12-07T07:58:45;2.40;99.90
60353;DHT22;46196;52.970;6.954;2022-12-07T08:01:11;2.60;99.90
60353;DHT22;46196;52.970;6.954;2022-12-07T08:03:36;2.80;99.90
60353;DHT22;46196;52.970;6.954;2022-12-07T08:06:03;2.90;99.90
60353;DHT22;46196;52.970;6.954;2022-12-07T08:08:29;3.00;99.90
60353;DHT22;46196;52.970;6.954;2022-12-07T08:10:54;3.10;99.90
60353;DHT22;46196;52.970;6.954;2022-12-07T08:13:20;3.10;99.90
60353;DHT22;46196;52.970;6.954;2022-12-07T08:15:47;3.20;99.90
60353;DHT22;46196;52.970;6.954;2022-12-07T08:18:14;3.20;99.90
60353;DHT22;46196;52.970;6.954;2022-12-07T08:20:40;3.20;99.90
60353;DHT22;46196;52.970;6.954;2022-12-07T08:23:07;3.30;99.90
60353;DHT22;46196;52.970;6.954;2022-12-07T08:25:33;3.30;99.90
60353;DHT22;46196;52.970;6.954;2022-12-07T08:27:59;3.30;99.90
60353;DHT22;46196;52.970;6.954;2022-12-07T08:30:27;3.40;99.90
60353;DHT22;46196;52.970;6.954;2022-12-07T08:32:52;4.00;99.90
60353;DHT22;46196;52.970;6.954;2022-12-07T08:35:18;3.30;99.90
60353;DHT22;46196;52.970;6.954;2022-12-07T08:37:44;3.30;99.90
60353;DHT22;46196;52.970;6.954;2022-12-07T08:40:11;3.30;99.90
60353;DHT22;46196;52.970;6.954;2022-12-07T08:42:43;3.30;99.90
60353;DHT22;46196;52.970;6.954;2022-12-07T08:45:14;3.20;99.90
60353;DHT22;46196;52.970;6.954;2022-12-07T08:47:50;3.10;99.90
60353;DHT22;46196;52.970;6.954;2022-12-07T08:50:18;3.10;99.90
60353;DHT22;46196;52.970;6.954;2022-12-07T08:52:44;3.10;99.90
60353;DHT22;46196;52.970;6.954;2022-12-07T08:55:14;3.10;99.90
60353;DHT22;46196;52.970;6.954;2022-12-07T08:57:40;3.10;99.90
60353;DHT22;46196;52.970;6.954;2022-12-07T09:00:06;3.00;99.90
60353;DHT22;46196;52.970;6.954;2022-12-07T09:02:33;3.00;99.90
60353;DHT22;46196;52.970;6.954;2022-12-07T09:04:58;3.00;99.90
60353;DHT22;46196;52.970;6.954;2022-12-07T09:07:24;3.10;99.90
60353;DHT22;46196;52.970;6.954;2022-12-07T09:09:50;3.10;99.90
60353;DHT22;46196;52.970;6.954;2022-12-07T09:12:16;3.10;99.90
60353;DHT22;46196;52.970;6.954;2022-12-07T09:14:42;3.20;99.90
60353;DHT22;46196;52.970;6.954;2022-12-07T09:17:09;3.20;99.90
60353;DHT22;46196;52.970;6.954;2022-12-07T09:19:35;2.60;99.90
60353;DHT22;46196;52.970;6.954;2022-12-07T09:22:01;3.80;99.90
60353;DHT22;46196;52.970;6.954;2022-12-07T09:24:27;3.40;99.90
60353;DHT22;46196;52.970;6.954;2022-12-07T09:26:53;3.50;99.90
60353;DHT22;46196;52.970;6.954;2022-12-07T09:29:19;3.50;99.90
60353;DHT22;46196;52.970;6.954;2022-12-07T09:31:45;3.60;99.90
60353;DHT22;46196;52.970;6.954;2022-12-07T09:34:11;3.60;99.90
60353;DHT22;46196;52.970;6.954;2022-12-07T09:36:37;3.70;99.90
60353;DHT22;46196;52.970;6.954;2022-12-07T09:39:03;3.70;99.90
60353;DHT22;46196;52.970;6.954;2022-12-07T09:41:31;3.80;99.90
60353;DHT22;46196;52.970;6.954;2022-12-07T09:44:21;3.90;99.90
60353;DHT22;46196;52.970;6.954;2022-12-07T09:46:48;4.00;99.90
60353;DHT22;46196;52.970;6.954;2022-12-07T09:49:19;4.20;99.90
60353;DHT22;46196;52.970;6.954;2022-12-07T09:51:46;4.10;99.90
60353;DHT22;46196;52.970;6.954;2022-12-07T09:54:14;4.10;99.90
60353;DHT22;46196;52.970;6.954;2022-12-07T09:56:41;4.20;99.90
60353;DHT22;46196;52.970;6.954;2022-12-07T09:59:15;4.30;99.90
60353;DHT22;46196;52.970;6.954;2022-12-07T10:01:42;4.30;99.90
60353;DHT22;46196;52.970;6.954;2022-12-07T10:04:20;4.30;99.90
60353;DHT22;46196;52.970;6.954;2022-12-07T10:06:47;4.40;99.90
60353;DHT22;46196;52.970;6.954;2022-12-07T10:09:15;4.60;99.90
60353;DHT22;46196;52.970;6.954;2022-12-07T10:14:30;4.80;99.90
60353;DHT22;46196;52.970;6.954;2022-12-07T10:16:56;4.90;99.90
60353;DHT22;46196;52.970;6.954;2022-12-07T10:19:26;5.10;99.90
60353;DHT22;46196;52.970;6.954;2022-12-07T10:24:29;5.50;99.90
60353;DHT22;46196;52.970;6.954;2022-12-07T10:26:55;5.30;99.90
60353;DHT22;46196;52.970;6.954;2022-12-07T10:32:03;5.20;99.90
60353;DHT22;46196;52.970;6.954;2022-12-07T10:34:32;5.90;99.90
60353;DHT22;46196;52.970;6.954;2022-12-07T10:37:18;5.20;99.90
60353;DHT22;46196;52.970;6.954;2022-12-07T10:39:55;6.20;99.90
60353;DHT22;46196;52.970;6.954;2022-12-07T10:42:30;5.60;99.90
60353;DHT22;46196;52.970;6.954;2022-12-07T10:45:17;5.20;99.90
60353;DHT22;46196;52.970;6.954;2022-12-07T10:47:55;5.10;99.90
60353;DHT22;46196;52.970;6.954;2022-12-07T10:50:55;5.20;99.90
60353;DHT22;46196;52.970;6.954;2022-12-07T11:03:02;5.20;99.90
60353;DHT22;46196;52.970;6.954;2022-12-07T11:07:38;5.30;99.90
60353;DHT22;46196;52.970;6.954;2022-12-07T11:18:29;5.80;99.90
60353;DHT22;46196;52.970;6.954;2022-12-07T11:21:14;5.90;99.90
60353;DHT22;46196;52.970;6.954;2022-12-07T11:23:46;5.80;99.90
60353;DHT22;46196;52.970;6.954;2022-12-07T11:34:39;5.70;99.90
60353;DHT22;46196;52.970;6.954;2022-12-07T11:37:16;5.70;99.90
60353;DHT22;46196;52.970;6.954;2022-12-07T11:39:57;6.80;99.90
60353;DHT22;46196;52.970;6.954;2022-12-07T11:42:27;5.70;99.90
60353;DHT22;46196;52.970;6.954;2022-12-07T11:45:13;5.70;99.90
60353;DHT22;46196;52.970;6.954;2022-12-07T11:48:02;5.70;99.90
60353;DHT22;46196;52.970;6.954;2022-12-07T11:56:13;5.50;99.90
60353;DHT22;46196;52.970;6.954;2022-12-07T11:59:08;5.50;99.90
60353;DHT22;46196;52.970;6.954;2022-12-07T12:06:40;5.50;99.90
60353;DHT22;46196;52.970;6.954;2022-12-07T12:09:22;5.40;99.90
60353;DHT22;46196;52.970;6.954;2022-12-07T12:12:17;5.40;99.90
60353;DHT22;46196;52.970;6.954;2022-12-07T12:23:10;5.10;99.90
60353;DHT22;46196;52.970;6.954;2022-12-07T12:26:08;5.10;99.90
60353;DHT22;46196;52.970;6.954;2022-12-07T12:28:48;6.00;99.90
60353;DHT22;46196;52.970;6.954;2022-12-07T12:33:52;5.10;99.90
60353;DHT22;46196;52.970;6.954;2022-12-07T12:36:44;5.10;99.90
60353;DHT22;46196;52.970;6.954;2022-12-07T12:39:15;5.20;99.90
60353;DHT22;46196;52.970;6.954;2022-12-07T12:54:38;5.10;99.90
60353;DHT22;46196;52.970;6.954;2022-12-07T12:57:32;5.90;99.90
60353;DHT22;46196;52.970;6.954;2022-12-07T12:59:59;5.10;99.90
60353;DHT22;46196;52.970;6.954;2022-12-07T13:02:38;5.20;99.90
60353;DHT22;46196;52.970;6.954;2022-12-07T13:23:55;5.10;99.90
60353;DHT22;46196;52.970;6.954;2022-12-07T13:31:50;5.10;99.90
60353;DHT22;46196;52.970;6.954;2022-12-07T13:37:14;5.90;99.90
60353;DHT22;46196;52.970;6.954;2022-12-07T13:42:30;5.10;99.90
60353;DHT22;46196;52.970;6.954;2022-12-07T13:44:58;5.20;99.90
60353;DHT22;46196;52.970;6.954;2022-12-07T13:47:48;5.20;99.90
60353;DHT22;46196;52.970;6.954;2022-12-07T13:50:31;6.10;99.90
60353;DHT22;46196;52.970;6.954;2022-12-07T13:52:58;5.30;99.90
60353;DHT22;46196;52.970;6.954;2022-12-07T13:55:25;5.20;99.90
60353;DHT22;46196;52.970;6.954;2022-12-07T13:57:52;5.20;99.90
60353;DHT22;46196;52.970;6.954;2022-12-07T14:00:21;5.10;99.90
60353;DHT22;46196;52.970;6.954;2022-12-07T14:03:03;5.10;99.90
60353;DHT22;46196;52.970;6.954;2022-12-07T14:05:32;5.60;99.90
60353;DHT22;46196;52.970;6.954;2022-12-07T14:08:01;5.80;99.90
60353;DHT22;46196;52.970;6.954;2022-12-07T14:12:58;4.80;99.90
60353;DHT22;46196;52.970;6.954;2022-12-07T14:15:32;4.80;99.90
60353;DHT22;46196;52.970;6.954;2022-12-07T14:17:59;4.80;99.90
60353;DHT22;46196;52.970;6.954;2022-12-07T14:23:02;4.60;99.90
60353;DHT22;46196;52.970;6.954;2022-12-07T14:26:04;4.60;99.90
60353;DHT22;46196;52.970;6.954;2022-12-07T14:28:32;4.50;99.90
60353;DHT22;46196;52.970;6.954;2022-12-07T14:30:59;4.60;99.90
60353;DHT22;46196;52.970;6.954;2022-12-07T14:33:25;4.50;99.90
60353;DHT22;46196;52.970;6.954;2022-12-07T14:35:51;5.00;99.90
60353;DHT22;46196;52.970;6.954;2022-12-07T14:38:24;4.50;99.90
60353;DHT22;46196;52.970;6.954;2022-12-07T14:40:51;4.60;99.90
60353;DHT22;46196;52.970;6.954;2022-12-07T14:43:18;4.50;99.90
60353;DHT22;46196;52.970;6.954;2022-12-07T14:45:44;4.50;99.90
60353;DHT22;46196;52.970;6.954;2022-12-07T14:48:14;4.50;99.90
60353;DHT22;46196;52.970;6.954;2022-12-07T14:50:44;4.40;99.90
60353;DHT22;46196;52.970;6.954;2022-12-07T14:53:14;4.50;99.90
60353;DHT22;46196;52.970;6.954;2022-12-07T14:55:40;4.30;99.90
60353;DHT22;46196;52.970;6.954;2022-12-07T14:58:10;4.40;99.90
60353;DHT22;46196;52.970;6.954;2022-12-07T15:00:37;4.30;99.90
60353;DHT22;46196;52.970;6.954;2022-12-07T15:03:03;4.30;99.90
60353;DHT22;46196;52.970;6.954;2022-12-07T15:05:28;4.40;99.90
60353;DHT22;46196;52.970;6.954;2022-12-07T15:07:54;4.20;99.90
60353;DHT22;46196;52.970;6.954;2022-12-07T15:10:22;4.10;99.90
60353;DHT22;46196;52.970;6.954;2022-12-07T15:12:48;4.10;99.90
60353;DHT22;46196;52.970;6.954;2022-12-07T15:15:15;4.00;99.90
60353;DHT22;46196;52.970;6.954;2022-12-07T15:17:40;3.90;99.90
60353;DHT22;46196;52.970;6.954;2022-12-07T15:20:11;4.40;99.90
60353;DHT22;46196;52.970;6.954;2022-12-07T15:22:37;3.70;99.90
60353;DHT22;46196;52.970;6.954;2022-12-07T15:25:03;3.70;99.90
60353;DHT22;46196;52.970;6.954;2022-12-07T15:27:31;3.70;99.90
60353;DHT22;46196;52.970;6.954;2022-12-07T15:29:57;4.80;99.90
60353;DHT22;46196;52.970;6.954;2022-12-07T15:32:23;3.60;99.90
60353;DHT22;46196;52.970;6.954;2022-12-07T15:34:48;3.60;99.90
60353;DHT22;46196;52.970;6.954;2022-12-07T15:37:15;3.70;99.90
60353;DHT22;46196;52.970;6.954;2022-12-07T15:39:41;3.80;99.90
60353;DHT22;46196;52.970;6.954;2022-12-07T15:42:07;3.80;99.90
60353;DHT22;46196;52.970;6.954;2022-12-07T15:44:33;3.80;99.90
60353;DHT22;46196;52.970;6.954;2022-12-07T15:47:17;3.90;99.90
60353;DHT22;46196;52.970;6.954;2022-12-07T15:49:43;4.00;99.90
60353;DHT22;46196;52.970;6.954;2022-12-07T15:52:09;3.90;99.90
60353;DHT22;46196;52.970;6.954;2022-12-07T15:54:35;3.90;99.90
60353;DHT22;46196;52.970;6.954;2022-12-07T15:57:01;3.80;99.90
60353;DHT22;46196;52.970;6.954;2022-12-07T15:59:28;3.70;99.90
60353;DHT22;46196;52.970;6.954;2022-12-07T16:01:54;3.80;99.90
60353;DHT22;46196;52.970;6.954;2022-12-07T16:04:20;3.80;99.90
60353;DHT22;46196;52.970;6.954;2022-12-07T16:06:46;3.70;99.90
60353;DHT22;46196;52.970;6.954;2022-12-07T16:09:12;3.60;99.90
60353;DHT22;46196;52.970;6.954;2022-12-07T16:11:38;3.60;99.90
60353;DHT22;46196;52.970;6.954;2022-12-07T16:14:03;3.60;99.90
60353;DHT22;46196;52.970;6.954;2022-12-07T16:16:30;3.50;99.90
60353;DHT22;46196;52.970;6.954;2022-12-07T16:18:56;3.50;99.90
60353;DHT22;46196;52.970;6.954;2022-12-07T16:21:22;3.50;99.90
60353;DHT22;46196;52.970;6.954;2022-12-07T16:23:48;3.40;99.90
60353;DHT22;46196;52.970;6.954;2022-12-07T16:26:17;3.40;99.90
60353;DHT22;46196;52.970;6.954;2022-12-07T16:28:43;3.40;99.90
60353;DHT22;46196;52.970;6.954;2022-12-07T16:31:15;3.40;99.90
60353;DHT22;46196;52.970;6.954;2022-12-07T16:33:42;3.60;99.90
60353;DHT22;46196;52.970;6.954;2022-12-07T16:36:10;3.30;99.90
60353;DHT22;46196;52.970;6.954;2022-12-07T16:38:37;3.40;99.90
60353;DHT22;46196;52.970;6.954;2022-12-07T16:41:04;3.30;99.90
60353;DHT22;46196;52.970;6.954;2022-12-07T16:43:30;3.30;99.90
60353;DHT22;46196;52.970;6.954;2022-12-07T16:45:56;3.30;99.90
60353;DHT22;46196;52.970;6.954;2022-12-07T16:48:21;3.30;99.90
60353;DHT22;46196;52.970;6.954;2022-12-07T16:50:47;3.20;99.90
60353;DHT22;46196;52.970;6.954;2022-12-07T16:53:14;3.30;99.90
60353;DHT22;46196;52.970;6.954;2022-12-07T16:55:43;3.20;99.90
60353;DHT22;46196;52.970;6.954;2022-12-07T16:58:13;3.20;99.90
60353;DHT22;46196;52.970;6.954;2022-12-07T17:00:40;3.20;99.90
60353;DHT22;46196;52.970;6.954;2022-12-07T17:03:07;3.20;99.90
60353;DHT22;46196;52.970;6.954;2022-12-07T17:05:36;3.20;99.90
60353;DHT22;46196;52.970;6.954;2022-12-07T17:08:02;3.40;99.90
60353;DHT22;46196;52.970;6.954;2022-12-07T17:10:28;3.20;99.90
60353;DHT22;46196;52.970;6.954;2022-12-07T17:12:54;3.30;99.90
60353;DHT22;46196;52.970;6.954;2022-12-07T17:15:20;3.30;99.90
60353;DHT22;46196;52.970;6.954;2022-12-07T17:17:58;3.30;99.90
60353;DHT22;46196;52.970;6.954;2022-12-07T17:20:26;3.30;99.90
60353;DHT22;46196;52.970;6.954;2022-12-07T17:22:53;4.00;99.90
60353;DHT22;46196;52.970;6.954;2022-12-07T17:25:19;3.90;99.90
60353;DHT22;46196;52.970;6.954;2022-12-07T17:27:46;3.40;99.90
60353;DHT22;46196;52.970;6.954;2022-12-07T17:30:13;3.40;99.90
60353;DHT22;46196;52.970;6.954;2022-12-07T17:32:39;3.50;99.90
60353;DHT22;46196;52.970;6.954;2022-12-07T17:35:05;3.40;99.90
60353;DHT22;46196;52.970;6.954;2022-12-07T17:37:32;3.40;99.90
60353;DHT22;46196;52.970;6.954;2022-12-07T17:39:58;3.40;99.90
60353;DHT22;46196;52.970;6.954;2022-12-07T17:42:27;3.50;99.90
60353;DHT22;46196;52.970;6.954;2022-12-07T17:45:09;3.50;99.90
60353;DHT22;46196;52.970;6.954;2022-12-07T17:47:36;3.50;99.90
60353;DHT22;46196;52.970;6.954;2022-12-07T17:50:03;3.40;99.90
60353;DHT22;46196;52.970;6.954;2022-12-07T17:52:29;3.50;99.90
60353;DHT22;46196;52.970;6.954;2022-12-07T17:55:13;3.50;99.90
60353;DHT22;46196;52.970;6.954;2022-12-07T17:57:39;3.40;99.90
60353;DHT22;46196;52.970;6.954;2022-12-07T18:00:06;4.30;99.90
60353;DHT22;46196;52.970;6.954;2022-12-07T18:02:32;3.50;99.90
60353;DHT22;46196;52.970;6.954;2022-12-07T18:04:57;3.50;99.90
60353;DHT22;46196;52.970;6.954;2022-12-07T18:07:23;3.50;99.90
60353;DHT22;46196;52.970;6.954;2022-12-07T18:09:49;3.50;99.90
60353;DHT22;46196;52.970;6.954;2022-12-07T18:12:14;3.50;99.90
60353;DHT22;46196;52.970;6.954;2022-12-07T18:14:40;3.70;99.90